Time;durP1;ratioP1;P1;durP2;ratioP2;P2;SDS_P1;SDS_P2;PMS_P1;PMS_P2;Temp;Humidity;BMP_temperature;BMP_pressure;BME280_temperature;BME280_humidity;BME280_pressure;Samples;Min_cycle;Max_cycle;Signal;HPM_P1;HPM_P2
2022/03/17 00:01:01;;;;;;;24.58;15.73;;;;;;;;;;5016591;28;20013;-79
2022/03/17 00:03:27;;;;;;;24.25;15.30;;;;;;;;;;5013706;28;20026;-75
2022/03/17 00:05:52;;;;;;;23.25;15.90;;;;;;;;;;5012954;28;20037;-75
2022/03/17 00:08:18;;;;;;;24.27;15.80;;;;;;;;;;5014968;28;20010;-76
2022/03/17 00:10:43;;;;;;;22.25;14.57;;;;;;;;;;5014663;28;20018;-77
2022/03/17 00:13:08;;;;;;;21.83;14.65;;;;;;;;;;5016977;28;20045;-78
2022/03/17 00:15:33;;;;;;;23.55;15.68;;;;;;;;;;5019759;28;20121;-79
2022/03/17 00:18:00;;;;;;;25.05;15.80;;;;;;;;;;5015390;28;20026;-77
2022/03/17 00:20:26;;;;;;;23.52;15.32;;;;;;;;;;5014175;28;20468;-76
2022/03/17 00:22:51;;;;;;;22.60;14.65;;;;;;;;;;5024169;28;20152;-75
2022/03/17 00:25:17;;;;;;;22.85;15.60;;;;;;;;;;5018645;28;20036;-76
2022/03/17 00:27:43;;;;;;;24.30;15.93;;;;;;;;;;5013393;28;20037;-76
2022/03/17 00:30:08;;;;;;;23.20;15.73;;;;;;;;;;5020660;28;20044;-75
2022/03/17 00:32:33;;;;;;;29.10;16.38;;;;;;;;;;5018005;28;20018;-75
2022/03/17 00:37:42;;;;;;;20.55;14.60;;;;;;;;;;5013957;28;20618;-76
2022/03/17 00:40:08;;;;;;;27.65;15.80;;;;;;;;;;5013260;28;20125;-76
2022/03/17 00:42:33;;;;;;;22.75;14.98;;;;;;;;;;5015612;28;20494;-78
2022/03/17 00:44:58;;;;;;;24.27;15.25;;;;;;;;;;5016063;28;20026;-78
2022/03/17 00:47:24;;;;;;;25.65;16.58;;;;;;;;;;5018593;28;20018;-76
2022/03/17 00:49:49;;;;;;;26.30;16.48;;;;;;;;;;5013581;28;20049;-76
2022/03/17 00:52:16;;;;;;;23.90;15.45;;;;;;;;;;5013401;28;20018;-78
2022/03/17 00:54:42;;;;;;;24.50;16.50;;;;;;;;;;5013333;28;20018;-77
2022/03/17 00:57:08;;;;;;;25.85;15.98;;;;;;;;;;5022117;28;20017;-76
2022/03/17 00:59:33;;;;;;;23.45;15.95;;;;;;;;;;5023083;28;20044;-79
2022/03/17 01:01:59;;;;;;;25.50;16.58;;;;;;;;;;5012978;28;20387;-77
2022/03/17 01:04:24;;;;;;;27.38;17.33;;;;;;;;;;5013241;28;20406;-76
2022/03/17 01:06:49;;;;;;;24.70;17.00;;;;;;;;;;5012369;28;20025;-77
2022/03/17 01:09:14;;;;;;;26.58;16.73;;;;;;;;;;5007706;28;20496;-76
2022/03/17 01:11:40;;;;;;;27.77;16.75;;;;;;;;;;4993320;28;20023;-75
2022/03/17 01:14:05;;;;;;;29.98;17.80;;;;;;;;;;5015172;28;20038;-75
2022/03/17 01:16:30;;;;;;;27.85;16.58;;;;;;;;;;5020054;28;20016;-75
2022/03/17 01:18:55;;;;;;;27.15;16.77;;;;;;;;;;5016308;28;20041;-74
2022/03/17 01:21:21;;;;;;;29.10;17.70;;;;;;;;;;5018676;28;20037;-73
2022/03/17 01:23:46;;;;;;;29.17;17.10;;;;;;;;;;5018872;28;20041;-74
2022/03/17 01:26:11;;;;;;;29.65;17.35;;;;;;;;;;5012213;28;20271;-74
2022/03/17 01:28:36;;;;;;;27.27;16.65;;;;;;;;;;5012939;28;20462;-75
2022/03/17 01:31:02;;;;;;;27.27;17.63;;;;;;;;;;5022055;28;20133;-74
2022/03/17 01:33:27;;;;;;;30.00;17.95;;;;;;;;;;5016071;28;20033;-74
2022/03/17 01:35:55;;;;;;;23.92;16.42;;;;;;;;;;5018378;28;20009;-74
2022/03/17 01:38:20;;;;;;;29.02;17.75;;;;;;;;;;5022162;28;20504;-74
2022/03/17 01:40:46;;;;;;;24.65;16.88;;;;;;;;;;5013650;28;20034;-75
2022/03/17 01:43:11;;;;;;;31.08;19.38;;;;;;;;;;5019639;28;20018;-75
2022/03/17 01:45:36;;;;;;;27.13;18.42;;;;;;;;;;5016657;28;20112;-74
2022/03/17 01:48:02;;;;;;;31.13;18.73;;;;;;;;;;5010896;28;20007;-75
2022/03/17 01:50:27;;;;;;;32.55;19.08;;;;;;;;;;5021072;28;20065;-77
2022/03/17 01:52:53;;;;;;;33.85;18.40;;;;;;;;;;5020262;28;20014;-75
2022/03/17 01:55:18;;;;;;;25.77;16.70;;;;;;;;;;5018988;28;21071;-74
2022/03/17 01:57:43;;;;;;;25.88;17.10;;;;;;;;;;5026306;28;20017;-75
2022/03/17 02:00:13;;;;;;;26.20;17.13;;;;;;;;;;5031674;28;20466;-75
2022/03/17 02:02:39;;;;;;;29.33;16.77;;;;;;;;;;5031742;28;20017;-75
2022/03/17 02:05:04;;;;;;;26.05;16.25;;;;;;;;;;5030134;28;20116;-74
2022/03/17 02:07:29;;;;;;;26.02;16.48;;;;;;;;;;5027451;28;20028;-74
2022/03/17 02:09:54;;;;;;;26.80;17.25;;;;;;;;;;5021474;28;20514;-74
2022/03/17 02:15:09;;;;;;;29.20;17.35;;;;;;;;;;5011864;28;20056;-73
2022/03/17 02:17:39;;;;;;;29.85;16.50;;;;;;;;;;5016118;28;20040;-74
2022/03/17 02:20:06;;;;;;;25.73;16.95;;;;;;;;;;5010933;28;20033;-74
2022/03/17 02:22:31;;;;;;;25.88;17.00;;;;;;;;;;5020183;28;20125;-74
2022/03/17 02:27:42;;;;;;;27.70;16.98;;;;;;;;;;5034885;28;20474;-78
2022/03/17 02:30:08;;;;;;;28.48;17.85;;;;;;;;;;5033413;28;20025;-73
2022/03/17 02:32:33;;;;;;;29.10;18.60;;;;;;;;;;5029776;28;20025;-73
2022/03/17 02:35:02;;;;;;;28.30;17.88;;;;;;;;;;5030226;28;20071;-73
2022/03/17 02:37:27;;;;;;;31.35;18.00;;;;;;;;;;5022055;28;20022;-73
2022/03/17 02:39:53;;;;;;;28.67;18.93;;;;;;;;;;5011325;28;20076;-73
2022/03/17 02:42:18;;;;;;;29.92;19.30;;;;;;;;;;5009835;28;20267;-73
2022/03/17 02:44:45;;;;;;;28.63;18.63;;;;;;;;;;5014773;28;20034;-73
2022/03/17 02:47:10;;;;;;;35.25;19.92;;;;;;;;;;5020126;28;20017;-74
2022/03/17 02:49:35;;;;;;;27.02;18.75;;;;;;;;;;5026476;28;20036;-73
2022/03/17 02:52:01;;;;;;;31.48;19.35;;;;;;;;;;5030743;28;20017;-73
2022/03/17 02:54:26;;;;;;;30.17;19.88;;;;;;;;;;5030836;28;20044;-74
2022/03/17 02:56:51;;;;;;;38.45;20.88;;;;;;;;;;5029608;28;20014;-74
2022/03/17 02:59:17;;;;;;;28.58;19.35;;;;;;;;;;5029416;28;20030;-73
2022/03/17 03:01:42;;;;;;;32.08;18.90;;;;;;;;;;5029889;28;20028;-73
2022/03/17 03:04:08;;;;;;;32.17;19.63;;;;;;;;;;5030136;28;20061;-74
2022/03/17 03:06:33;;;;;;;33.10;19.17;;;;;;;;;;5029817;28;20026;-74
2022/03/17 03:08:59;;;;;;;29.40;18.23;;;;;;;;;;5029155;28;20255;-78
2022/03/17 03:11:24;;;;;;;29.88;18.02;;;;;;;;;;5028814;28;20017;-73
2022/03/17 03:13:50;;;;;;;28.70;19.00;;;;;;;;;;5024199;28;20154;-75
2022/03/17 03:16:15;;;;;;;28.67;17.63;;;;;;;;;;5009744;28;20100;-74
2022/03/17 03:18:40;;;;;;;25.05;17.38;;;;;;;;;;5018670;28;20024;-73
2022/03/17 03:21:07;;;;;;;25.98;16.85;;;;;;;;;;5022424;28;20379;-75
2022/03/17 03:23:32;;;;;;;27.83;17.27;;;;;;;;;;5018663;28;20096;-74
2022/03/17 03:25:57;;;;;;;26.08;16.67;;;;;;;;;;5027397;28;20061;-75
2022/03/17 03:28:23;;;;;;;27.88;17.05;;;;;;;;;;5028486;28;20022;-74
2022/03/17 03:30:50;;;;;;;29.10;17.25;;;;;;;;;;5017044;28;20032;-75
2022/03/17 03:33:15;;;;;;;26.98;17.67;;;;;;;;;;5010060;28;20009;-74
2022/03/17 03:38:24;;;;;;;26.42;17.77;;;;;;;;;;5010578;28;20072;-74
2022/03/17 03:40:50;;;;;;;26.48;17.90;;;;;;;;;;5011502;28;20022;-80
2022/03/17 03:43:15;;;;;;;26.73;16.98;;;;;;;;;;4998442;28;20045;-74
2022/03/17 03:45:40;;;;;;;26.75;17.67;;;;;;;;;;5021097;28;20021;-74
2022/03/17 03:48:05;;;;;;;26.92;17.58;;;;;;;;;;5018634;28;20475;-74
2022/03/17 03:50:31;;;;;;;28.27;16.45;;;;;;;;;;5029454;28;20128;-75
2022/03/17 03:52:57;;;;;;;26.27;17.38;;;;;;;;;;5030074;28;20025;-75
2022/03/17 03:55:22;;;;;;;27.30;18.13;;;;;;;;;;5025394;28;20024;-75
2022/03/17 03:57:48;;;;;;;31.15;18.17;;;;;;;;;;5020007;28;20049;-74
2022/03/17 04:02:43;;;;;;;33.35;19.00;;;;;;;;;;5015217;28;20033;-75
2022/03/17 04:05:10;;;;;;;30.30;18.00;;;;;;;;;;5008952;28;20057;-76
2022/03/17 04:07:35;;;;;;;29.80;18.13;;;;;;;;;;5009886;28;20025;-75
2022/03/17 04:10:01;;;;;;;27.35;17.02;;;;;;;;;;5010210;28;20022;-76
2022/03/17 04:12:26;;;;;;;26.50;16.75;;;;;;;;;;5009635;28;20046;-75
2022/03/17 04:14:51;;;;;;;30.05;17.40;;;;;;;;;;5009452;28;20430;-76
2022/03/17 04:17:16;;;;;;;24.80;16.17;;;;;;;;;;5009745;28;20053;-75
2022/03/17 04:19:42;;;;;;;28.80;17.65;;;;;;;;;;5023455;28;20036;-80
2022/03/17 04:22:07;;;;;;;26.90;17.33;;;;;;;;;;5027793;28;20025;-74
2022/03/17 04:24:33;;;;;;;27.48;17.52;;;;;;;;;;5029206;28;20032;-75
2022/03/17 04:26:58;;;;;;;29.23;17.52;;;;;;;;;;5027609;28;20017;-74
2022/03/17 04:29:23;;;;;;;34.53;18.30;;;;;;;;;;5027863;28;20029;-75
2022/03/17 04:31:49;;;;;;;29.92;17.63;;;;;;;;;;5024209;28;20018;-75
2022/03/17 04:34:14;;;;;;;28.05;17.60;;;;;;;;;;5018952;28;20483;-75
2022/03/17 04:36:40;;;;;;;26.67;18.42;;;;;;;;;;5008503;28;20037;-74
2022/03/17 04:39:06;;;;;;;29.05;17.80;;;;;;;;;;5009712;28;20029;-80
2022/03/17 04:41:32;;;;;;;34.05;18.05;;;;;;;;;;4998507;28;20022;-76
2022/03/17 04:43:57;;;;;;;28.42;16.63;;;;;;;;;;5019365;28;20605;-75
2022/03/17 04:46:22;;;;;;;27.80;17.10;;;;;;;;;;5023551;28;20052;-75
2022/03/17 04:48:48;;;;;;;31.92;18.45;;;;;;;;;;5020271;28;20029;-75
2022/03/17 04:51:13;;;;;;;28.17;16.55;;;;;;;;;;5020772;28;20467;-75
2022/03/17 04:53:38;;;;;;;25.27;16.48;;;;;;;;;;5021563;28;20017;-75
2022/03/17 04:56:05;;;;;;;37.53;18.60;;;;;;;;;;5031269;28;20025;-75
2022/03/17 04:58:32;;;;;;;29.02;18.13;;;;;;;;;;5032919;28;20108;-76
2022/03/17 05:00:58;;;;;;;29.52;18.48;;;;;;;;;;5031652;28;20021;-74
2022/03/17 05:03:24;;;;;;;28.33;17.98;;;;;;;;;;5032580;28;20059;-75
2022/03/17 05:05:49;;;;;;;31.00;18.25;;;;;;;;;;5032761;28;20055;-75
2022/03/17 05:08:15;;;;;;;33.03;18.00;;;;;;;;;;5025822;28;20379;-75
2022/03/17 05:10:44;;;;;;;37.05;19.05;;;;;;;;;;5021420;28;20591;-74
2022/03/17 05:13:10;;;;;;;39.67;22.20;;;;;;;;;;5016212;28;20049;-74
2022/03/17 05:15:36;;;;;;;38.97;22.10;;;;;;;;;;5012675;28;20041;-76
2022/03/17 05:18:02;;;;;;;31.90;17.92;;;;;;;;;;5012776;28;20082;-75
2022/03/17 05:20:27;;;;;;;30.10;20.30;;;;;;;;;;5012468;28;20013;-74
2022/03/17 05:22:53;;;;;;;34.85;19.33;;;;;;;;;;5012871;28;20044;-75
2022/03/17 05:25:19;;;;;;;32.72;18.17;;;;;;;;;;5012529;28;20117;-76
2022/03/17 05:27:45;;;;;;;33.88;19.45;;;;;;;;;;5012680;28;20029;-74
2022/03/17 05:30:11;;;;;;;35.47;20.08;;;;;;;;;;5013835;28;20026;-75
2022/03/17 05:32:36;;;;;;;38.80;21.50;;;;;;;;;;5013346;28;20029;-74
2022/03/17 05:35:02;;;;;;;44.88;23.98;;;;;;;;;;5012561;28;20037;-75
2022/03/17 05:37:27;;;;;;;52.63;29.65;;;;;;;;;;5011108;28;20030;-75
2022/03/17 05:39:52;;;;;;;37.40;22.45;;;;;;;;;;5014922;28;20160;-75
2022/03/17 05:42:18;;;;;;;35.42;21.50;;;;;;;;;;5012354;28;20483;-75
2022/03/17 05:44:43;;;;;;;30.38;18.42;;;;;;;;;;5011620;28;20025;-74
2022/03/17 05:47:08;;;;;;;53.67;33.53;;;;;;;;;;5011773;28;20028;-75
2022/03/17 05:49:34;;;;;;;35.67;20.80;;;;;;;;;;5012132;28;20025;-74
2022/03/17 05:51:59;;;;;;;35.95;19.35;;;;;;;;;;5010358;28;20013;-75
2022/03/17 05:54:24;;;;;;;36.33;19.98;;;;;;;;;;5011906;28;20018;-75
2022/03/17 05:56:49;;;;;;;33.78;18.90;;;;;;;;;;5012232;28;20022;-74
2022/03/17 05:59:15;;;;;;;38.85;19.92;;;;;;;;;;5004905;28;20006;-76
2022/03/17 06:01:40;;;;;;;42.65;20.05;;;;;;;;;;5006631;28;20026;-74
2022/03/17 06:04:05;;;;;;;36.35;19.85;;;;;;;;;;4997842;28;20037;-74
2022/03/17 06:06:31;;;;;;;31.05;18.20;;;;;;;;;;5013988;28;20101;-75
2022/03/17 06:08:56;;;;;;;33.10;18.92;;;;;;;;;;5021477;28;20049;-75
2022/03/17 06:11:21;;;;;;;31.10;19.42;;;;;;;;;;5031179;28;20096;-72
2022/03/17 06:13:47;;;;;;;36.63;19.00;;;;;;;;;;5029565;28;20069;-72
2022/03/17 06:16:13;;;;;;;32.53;19.42;;;;;;;;;;5031036;28;20029;-73
2022/03/17 06:18:38;;;;;;;36.95;19.92;;;;;;;;;;5020655;28;20026;-72
2022/03/17 06:21:03;;;;;;;42.83;19.63;;;;;;;;;;5020786;28;20025;-72
2022/03/17 06:23:29;;;;;;;33.70;19.67;;;;;;;;;;5014016;28;20010;-72
2022/03/17 06:25:54;;;;;;;38.10;20.15;;;;;;;;;;5010717;28;20053;-72
2022/03/17 06:28:19;;;;;;;35.25;19.70;;;;;;;;;;5020224;28;20014;-72
2022/03/17 06:30:45;;;;;;;32.60;19.45;;;;;;;;;;5020112;28;20410;-72
2022/03/17 06:33:10;;;;;;;34.83;20.45;;;;;;;;;;5020220;28;20053;-72
2022/03/17 06:35:36;;;;;;;45.17;21.25;;;;;;;;;;5016513;28;20026;-72
2022/03/17 06:38:02;;;;;;;41.65;21.77;;;;;;;;;;5010418;28;20391;-74
2022/03/17 06:40:28;;;;;;;35.47;19.73;;;;;;;;;;5009642;28;20029;-72
2022/03/17 06:42:55;;;;;;;37.70;20.25;;;;;;;;;;5021276;28;20013;-72
2022/03/17 06:45:20;;;;;;;42.22;20.65;;;;;;;;;;5010295;28;20026;-72
2022/03/17 06:47:46;;;;;;;38.50;20.15;;;;;;;;;;5014512;28;20018;-73
2022/03/17 06:50:12;;;;;;;36.65;20.13;;;;;;;;;;5012293;28;20022;-75
2022/03/17 06:52:37;;;;;;;32.15;20.60;;;;;;;;;;5022075;28;20025;-75
2022/03/17 06:55:02;;;;;;;36.67;20.38;;;;;;;;;;5019626;28;20161;-76
2022/03/17 06:57:28;;;;;;;35.63;20.23;;;;;;;;;;5018504;28;20017;-75
2022/03/17 06:59:53;;;;;;;33.65;20.08;;;;;;;;;;5021205;28;20029;-75
2022/03/17 07:02:19;;;;;;;34.17;20.80;;;;;;;;;;5013496;28;20018;-74
2022/03/17 07:04:44;;;;;;;33.95;20.42;;;;;;;;;;5013016;28;20731;-80
2022/03/17 07:07:09;;;;;;;31.40;19.88;;;;;;;;;;5014957;28;20501;-74
2022/03/17 07:09:37;;;;;;;31.10;19.05;;;;;;;;;;5018795;28;20026;-74
2022/03/17 07:12:03;;;;;;;31.02;19.15;;;;;;;;;;5011915;28;20022;-74
2022/03/17 07:14:29;;;;;;;35.15;21.10;;;;;;;;;;5010442;28;20034;-74
2022/03/17 07:16:54;;;;;;;31.83;19.75;;;;;;;;;;5021311;28;20363;-75
2022/03/17 07:19:20;;;;;;;43.97;21.23;;;;;;;;;;5019328;28;20026;-75
2022/03/17 07:21:45;;;;;;;31.60;20.30;;;;;;;;;;5019384;28;20060;-74
2022/03/17 07:24:10;;;;;;;33.25;20.48;;;;;;;;;;5017173;28;20095;-76
2022/03/17 07:26:36;;;;;;;28.45;19.60;;;;;;;;;;5014790;28;20033;-75
2022/03/17 07:29:02;;;;;;;35.40;20.85;;;;;;;;;;5020996;28;20033;-85
2022/03/17 07:31:28;;;;;;;33.58;20.77;;;;;;;;;;5032929;28;20014;-86
2022/03/17 07:33:53;;;;;;;33.97;20.73;;;;;;;;;;5039036;28;20021;-84
2022/03/17 07:36:19;;;;;;;34.55;20.85;;;;;;;;;;5037952;28;20018;-83
2022/03/17 07:38:44;;;;;;;35.67;21.83;;;;;;;;;;5022282;28;20395;-84
2022/03/17 07:41:09;;;;;;;36.17;20.97;;;;;;;;;;5022306;28;20014;-83
2022/03/17 07:43:34;;;;;;;30.70;20.30;;;;;;;;;;5019859;28;20294;-76
2022/03/17 07:46:00;;;;;;;34.63;21.00;;;;;;;;;;5030097;28;20287;-84
2022/03/17 07:48:25;;;;;;;33.42;21.00;;;;;;;;;;5024283;28;20479;-86
2022/03/17 07:50:50;;;;;;;34.35;20.67;;;;;;;;;;5015327;28;20392;-87
2022/03/17 07:53:19;;;;;;;36.83;21.00;;;;;;;;;;5018494;28;20076;-85
2022/03/17 07:55:44;;;;;;;34.08;21.83;;;;;;;;;;5030587;28;20025;-89
2022/03/17 07:58:10;;;;;;;39.03;22.25;;;;;;;;;;5032083;28;20030;-85
2022/03/17 08:00:36;;;;;;;36.15;22.30;;;;;;;;;;5029087;28;20017;-83
2022/03/17 08:03:03;;;;;;;30.40;22.17;;;;;;;;;;5026973;28;20010;-84
2022/03/17 08:05:28;;;;;;;36.88;21.63;;;;;;;;;;5027726;28;20026;-86
2022/03/17 08:07:53;;;;;;;32.03;21.60;;;;;;;;;;5024378;28;20022;-86
2022/03/17 08:10:19;;;;;;;31.38;21.25;;;;;;;;;;5012001;28;20706;-91
2022/03/17 08:12:44;;;;;;;32.50;21.77;;;;;;;;;;5029833;28;20041;-84
2022/03/17 08:15:09;;;;;;;30.83;20.80;;;;;;;;;;5037098;28;20408;-90
2022/03/17 08:17:35;;;;;;;29.63;20.30;;;;;;;;;;5039787;28;20032;-81
2022/03/17 08:20:01;;;;;;;27.63;21.67;;;;;;;;;;5028056;28;20029;-77
2022/03/17 08:22:26;;;;;;;30.05;22.17;;;;;;;;;;5011705;28;20273;-77
2022/03/17 08:24:51;;;;;;;28.63;21.33;;;;;;;;;;5033344;28;20029;-74
2022/03/17 08:27:16;;;;;;;33.30;23.73;;;;;;;;;;5022470;28;20334;-74
2022/03/17 08:29:42;;;;;;;33.90;22.13;;;;;;;;;;5023545;28;20302;-86
2022/03/17 08:32:08;;;;;;;31.65;21.02;;;;;;;;;;5016860;28;20273;-84
2022/03/17 08:34:34;;;;;;;28.08;21.45;;;;;;;;;;4999994;28;20026;-82
2022/03/17 08:36:59;;;;;;;27.73;21.40;;;;;;;;;;5015232;28;20010;-84
2022/03/17 08:39:25;;;;;;;29.23;22.55;;;;;;;;;;5020457;28;20049;-79
2022/03/17 08:41:52;;;;;;;30.45;21.85;;;;;;;;;;5023864;28;20014;-82
2022/03/17 08:44:17;;;;;;;26.65;20.13;;;;;;;;;;5015431;28;20545;-79
2022/03/17 08:49:26;;;;;;;38.10;24.90;;;;;;;;;;5021339;28;20112;-79
2022/03/17 08:51:53;;;;;;;32.40;21.73;;;;;;;;;;5020272;28;20121;-77
2022/03/17 08:54:23;;;;;;;30.85;22.85;;;;;;;;;;5025824;28;20497;-77
2022/03/17 08:56:49;;;;;;;28.13;18.95;;;;;;;;;;5017441;28;20033;-87
2022/03/17 08:59:15;;;;;;;30.50;19.15;;;;;;;;;;5016149;28;20017;-75
2022/03/17 09:01:41;;;;;;;24.40;18.48;;;;;;;;;;5015714;28;20025;-78
2022/03/17 09:04:06;;;;;;;25.83;19.00;;;;;;;;;;5021069;28;20102;-78
2022/03/17 09:06:31;;;;;;;27.70;18.98;;;;;;;;;;5019245;28;20076;-76
2022/03/17 09:08:56;;;;;;;28.42;19.15;;;;;;;;;;5023855;28;20961;-76
2022/03/17 09:11:22;;;;;;;25.00;16.00;;;;;;;;;;5015299;28;20022;-74
2022/03/17 09:13:50;;;;;;;28.77;17.83;;;;;;;;;;5010468;28;20423;-77
2022/03/17 09:16:16;;;;;;;31.58;17.77;;;;;;;;;;5023544;28;20020;-76
2022/03/17 09:18:42;;;;;;;29.25;17.75;;;;;;;;;;5024389;28;20014;-76
2022/03/17 09:21:07;;;;;;;33.08;18.65;;;;;;;;;;5023280;28;20010;-75
2022/03/17 09:23:33;;;;;;;23.10;16.33;;;;;;;;;;5023038;28;20017;-76
2022/03/17 09:25:58;;;;;;;25.83;17.13;;;;;;;;;;5023879;28;20025;-77
2022/03/17 09:28:26;;;;;;;25.15;18.05;;;;;;;;;;5022655;28;20104;-76
2022/03/17 09:30:51;;;;;;;25.85;16.45;;;;;;;;;;5021347;28;20165;-74
2022/03/17 09:33:18;;;;;;;26.13;15.40;;;;;;;;;;5023446;28;20109;-76
2022/03/17 09:35:47;;;;;;;24.02;14.82;;;;;;;;;;5017283;28;20456;-76
2022/03/17 09:38:13;;;;;;;19.52;12.70;;;;;;;;;;5023567;28;20335;-75
2022/03/17 09:40:38;;;;;;;18.70;13.87;;;;;;;;;;4994704;28;20018;-75
2022/03/17 09:43:21;;;;;;;17.23;11.80;;;;;;;;;;5021585;28;20267;-75
2022/03/17 09:45:50;;;;;;;17.58;12.38;;;;;;;;;;5006751;28;20037;-74
2022/03/17 09:48:15;;;;;;;19.73;11.85;;;;;;;;;;5021010;28;20144;-76
2022/03/17 09:50:41;;;;;;;17.42;10.38;;;;;;;;;;5018466;28;20144;-76
2022/03/17 09:53:07;;;;;;;19.90;11.73;;;;;;;;;;5016910;28;20025;-75
2022/03/17 09:55:34;;;;;;;26.67;13.27;;;;;;;;;;5023568;28;20021;-76
2022/03/17 09:58:03;;;;;;;18.80;11.05;;;;;;;;;;5020953;28;20510;-77
2022/03/17 10:00:52;;;;;;;21.77;11.52;;;;;;;;;;5019991;28;20395;-75
2022/03/17 10:03:22;;;;;;;19.50;10.77;;;;;;;;;;5020817;28;20057;-73
2022/03/17 10:05:51;;;;;;;18.23;11.23;;;;;;;;;;5020084;28;20030;-75
2022/03/17 10:08:17;;;;;;;17.30;11.93;;;;;;;;;;5012358;28;20017;-76
2022/03/17 10:10:46;;;;;;;16.98;11.88;;;;;;;;;;5011037;28;20026;-75
2022/03/17 10:13:13;;;;;;;20.95;10.50;;;;;;;;;;5018280;28;20557;-75
2022/03/17 10:15:39;;;;;;;18.08;10.70;;;;;;;;;;5024123;28;20483;-76
2022/03/17 10:18:18;;;;;;;15.82;11.25;;;;;;;;;;5022243;28;20020;-76
2022/03/17 10:20:43;;;;;;;20.90;11.05;;;;;;;;;;5015002;28;20036;-76
2022/03/17 10:23:08;;;;;;;16.70;11.40;;;;;;;;;;5011785;28;20021;-76
2022/03/17 10:25:37;;;;;;;20.10;11.57;;;;;;;;;;5021210;28;20040;-76
2022/03/17 10:28:02;;;;;;;20.17;11.63;;;;;;;;;;5015149;28;20029;-76
2022/03/17 10:30:35;;;;;;;19.10;10.80;;;;;;;;;;5013709;28;20042;-76
2022/03/17 10:33:03;;;;;;;20.08;11.00;;;;;;;;;;5017701;28;20044;-75
2022/03/17 10:35:35;;;;;;;22.70;11.32;;;;;;;;;;5014787;28;20463;-76
2022/03/17 10:38:13;;;;;;;22.33;11.48;;;;;;;;;;5015636;28;20040;-75
2022/03/17 10:40:39;;;;;;;18.17;11.35;;;;;;;;;;5012178;28;20483;-76
2022/03/17 10:43:15;;;;;;;18.13;11.35;;;;;;;;;;5010891;28;20164;-76
2022/03/17 10:45:40;;;;;;;20.55;11.05;;;;;;;;;;5012603;28;20030;-77
2022/03/17 10:48:06;;;;;;;19.50;11.35;;;;;;;;;;5011366;28;20026;-75
2022/03/17 10:50:36;;;;;;;19.45;11.30;;;;;;;;;;5010785;28;20029;-75
2022/03/17 10:53:01;;;;;;;15.15;11.15;;;;;;;;;;5012649;28;20379;-78
2022/03/17 10:55:34;;;;;;;18.08;12.13;;;;;;;;;;5011980;28;20033;-76
2022/03/17 10:58:15;;;;;;;18.52;12.38;;;;;;;;;;5011310;28;20072;-75
2022/03/17 11:01:10;;;;;;;17.30;11.38;;;;;;;;;;5010104;28;20037;-75
2022/03/17 11:03:35;;;;;;;17.23;10.93;;;;;;;;;;4998330;28;20041;-77
2022/03/17 11:06:02;;;;;;;14.13;10.00;;;;;;;;;;5010700;28;20033;-76
2022/03/17 11:08:28;;;;;;;18.85;11.73;;;;;;;;;;5010680;28;20033;-75
2022/03/17 11:10:53;;;;;;;19.38;11.50;;;;;;;;;;5013205;28;20384;-74
2022/03/17 11:13:19;;;;;;;17.23;11.00;;;;;;;;;;5013550;28;20045;-76
2022/03/17 11:15:45;;;;;;;18.85;11.02;;;;;;;;;;5018501;28;20022;-79
2022/03/17 11:18:13;;;;;;;18.88;10.38;;;;;;;;;;5019599;28;20028;-77
2022/03/17 11:20:38;;;;;;;23.88;10.88;;;;;;;;;;5018193;28;20014;-85
2022/03/17 11:23:11;;;;;;;17.20;11.32;;;;;;;;;;5014157;28;20018;-85
2022/03/17 11:25:36;;;;;;;17.92;11.35;;;;;;;;;;5011184;28;20025;-76
2022/03/17 11:28:03;;;;;;;18.33;11.35;;;;;;;;;;5010566;28;20653;-77
2022/03/17 11:30:29;;;;;;;18.30;10.95;;;;;;;;;;5010610;28;20121;-77
2022/03/17 11:32:55;;;;;;;19.15;11.25;;;;;;;;;;5012458;28;20053;-76
2022/03/17 11:35:22;;;;;;;21.33;12.25;;;;;;;;;;5013783;28;20029;-76
2022/03/17 11:37:47;;;;;;;18.00;11.45;;;;;;;;;;5012476;28;20032;-78
2022/03/17 11:40:19;;;;;;;20.10;12.00;;;;;;;;;;5013057;28;20022;-75
2022/03/17 11:43:03;;;;;;;24.25;12.15;;;;;;;;;;5013923;28;20542;-86
2022/03/17 11:45:37;;;;;;;33.63;14.82;;;;;;;;;;5015122;28;20104;-77
2022/03/17 11:48:06;;;;;;;22.45;10.80;;;;;;;;;;5002436;28;20026;-75
2022/03/17 11:50:38;;;;;;;14.52;9.23;;;;;;;;;;4991471;28;20042;-78
2022/03/17 11:53:08;;;;;;;16.05;10.00;;;;;;;;;;5006717;28;20041;-75
2022/03/17 11:55:53;;;;;;;17.35;10.45;;;;;;;;;;4991561;28;20109;-82
2022/03/17 11:58:25;;;;;;;18.40;12.07;;;;;;;;;;5007660;28;20022;-74
2022/03/17 12:01:11;;;;;;;17.92;11.15;;;;;;;;;;4991108;28;20031;-74
2022/03/17 12:03:38;;;;;;;20.02;12.65;;;;;;;;;;5012722;28;20018;-80
2022/03/17 12:06:08;;;;;;;21.77;11.68;;;;;;;;;;5018421;28;20032;-83
2022/03/17 12:08:41;;;;;;;15.68;9.98;;;;;;;;;;5027172;28;20148;-85
2022/03/17 12:11:09;;;;;;;17.77;11.45;;;;;;;;;;5021358;28;20022;-86
2022/03/17 12:13:35;;;;;;;16.35;9.82;;;;;;;;;;5015097;28;20046;-83
2022/03/17 12:16:01;;;;;;;17.45;10.38;;;;;;;;;;5018160;28;20028;-83
2022/03/17 12:18:28;;;;;;;16.05;9.85;;;;;;;;;;5017614;28;20010;-87
2022/03/17 12:20:53;;;;;;;19.33;10.65;;;;;;;;;;5016941;28;20025;-83
2022/03/17 12:23:37;;;;;;;15.15;10.10;;;;;;;;;;5013844;28;20109;-86
2022/03/17 12:26:05;;;;;;;14.48;9.07;;;;;;;;;;5021354;28;20030;-80
2022/03/17 12:28:30;;;;;;;25.55;15.15;;;;;;;;;;5015856;28;20034;-89
2022/03/17 12:30:57;;;;;;;14.35;8.82;;;;;;;;;;5021219;28;20013;-82
2022/03/17 12:33:23;;;;;;;17.05;9.38;;;;;;;;;;5020302;28;20021;-87
2022/03/17 12:36:02;;;;;;;14.50;9.55;;;;;;;;;;5013613;28;20040;-84
2022/03/17 12:38:27;;;;;;;18.55;9.82;;;;;;;;;;5019439;28;20014;-86
2022/03/17 12:40:53;;;;;;;14.60;9.38;;;;;;;;;;5024351;28;20025;-86
2022/03/17 12:43:20;;;;;;;14.75;8.90;;;;;;;;;;5014391;28;20014;-77
2022/03/17 12:45:47;;;;;;;14.82;10.20;;;;;;;;;;5012856;28;20030;-82
2022/03/17 12:48:12;;;;;;;17.08;10.15;;;;;;;;;;5019059;28;20014;-85
2022/03/17 12:50:38;;;;;;;15.10;9.77;;;;;;;;;;5011774;28;20029;-87
2022/03/17 12:53:03;;;;;;;19.05;10.75;;;;;;;;;;5017952;28;20113;-87
2022/03/17 12:55:29;;;;;;;16.53;10.10;;;;;;;;;;5009396;28;20033;-82
2022/03/17 12:57:57;;;;;;;14.32;9.25;;;;;;;;;;5011210;28;20259;-83
2022/03/17 13:00:23;;;;;;;17.27;10.07;;;;;;;;;;5022163;28;20112;-87
2022/03/17 13:02:54;;;;;;;14.20;9.27;;;;;;;;;;5014485;28;20438;-75
2022/03/17 13:08:04;;;;;;;23.00;9.35;;;;;;;;;;5029431;28;20386;-80
2022/03/17 13:14:20;;;;;;;19.13;10.75;;;;;;;;;;5036948;28;20010;-87
2022/03/17 13:15:59;;;;;;;12.77;8.45;;;;;;;;;;5023577;28;20509;-77
2022/03/17 13:18:25;;;;;;;17.15;10.73;;;;;;;;;;5015483;28;20022;-77
2022/03/17 13:20:59;;;;;;;17.73;10.80;;;;;;;;;;5018793;28;20445;-78
2022/03/17 13:23:33;;;;;;;16.23;9.95;;;;;;;;;;5020304;28;20267;-75
2022/03/17 13:25:59;;;;;;;20.43;11.03;;;;;;;;;;5014678;28;20037;-76
2022/03/17 13:28:24;;;;;;;16.10;9.70;;;;;;;;;;5015577;28;20259;-76
2022/03/17 13:30:52;;;;;;;16.92;8.75;;;;;;;;;;5005714;28;20108;-76
2022/03/17 13:33:25;;;;;;;14.27;8.70;;;;;;;;;;5015939;28;20014;-76
2022/03/17 13:35:50;;;;;;;18.55;9.20;;;;;;;;;;5019407;28;20017;-76
2022/03/17 13:38:19;;;;;;;14.70;8.88;;;;;;;;;;5012749;28;20021;-75
2022/03/17 13:40:46;;;;;;;13.75;9.05;;;;;;;;;;5020175;28;20029;-76
2022/03/17 13:43:12;;;;;;;16.60;9.32;;;;;;;;;;5017260;28;20014;-75
2022/03/17 13:45:41;;;;;;;20.27;9.98;;;;;;;;;;5021752;28;20029;-75
2022/03/17 13:48:08;;;;;;;17.73;9.00;;;;;;;;;;5014942;28;20590;-75
2022/03/17 13:50:41;;;;;;;16.42;8.80;;;;;;;;;;5011015;28;20034;-76
2022/03/17 13:53:10;;;;;;;16.65;10.20;;;;;;;;;;5019582;28;20060;-76
2022/03/17 13:55:43;;;;;;;16.13;8.40;;;;;;;;;;5020913;28;20122;-76
2022/03/17 13:58:12;;;;;;;16.27;8.75;;;;;;;;;;5018409;28;20022;-76
2022/03/17 14:00:38;;;;;;;15.40;9.20;;;;;;;;;;5019938;28;20103;-76
2022/03/17 14:03:10;;;;;;;15.25;8.75;;;;;;;;;;5022206;28;20048;-75
2022/03/17 14:05:35;;;;;;;15.98;8.63;;;;;;;;;;5016884;28;20064;-76
2022/03/17 14:08:00;;;;;;;20.17;9.40;;;;;;;;;;5018017;28;20101;-76
2022/03/17 14:10:26;;;;;;;14.23;9.10;;;;;;;;;;5021397;28;20014;-74
2022/03/17 14:13:01;;;;;;;17.08;8.60;;;;;;;;;;5010102;28;20487;-76
2022/03/17 14:15:26;;;;;;;16.58;9.70;;;;;;;;;;5021883;28;20033;-76
2022/03/17 14:17:51;;;;;;;16.35;8.65;;;;;;;;;;4994682;28;20029;-76
2022/03/17 14:20:17;;;;;;;17.70;9.52;;;;;;;;;;5018839;28;20013;-75
2022/03/17 14:25:26;;;;;;;14.57;9.43;;;;;;;;;;5019955;28;20049;-75
2022/03/17 14:27:51;;;;;;;19.53;9.13;;;;;;;;;;5019360;28;20395;-76
2022/03/17 14:30:16;;;;;;;16.30;8.95;;;;;;;;;;5017859;28;20374;-78
2022/03/17 14:32:41;;;;;;;19.45;9.27;;;;;;;;;;5018103;28;20006;-77
2022/03/17 14:35:07;;;;;;;14.43;8.00;;;;;;;;;;5018206;28;20017;-76
2022/03/17 14:37:32;;;;;;;29.63;13.15;;;;;;;;;;5017993;28;20112;-78
2022/03/17 14:39:57;;;;;;;16.17;9.65;;;;;;;;;;5010342;28;20022;-77